createdAt,value
2018-12-16T00:01:33.675Z,6.51
2018-12-16T00:04:02.720Z,6.48
2018-12-16T00:06:31.505Z,6.52
2018-12-16T00:09:00.200Z,6.48
2018-12-16T00:11:29.142Z,6.51
2018-12-16T00:13:57.858Z,6.60
2018-12-16T00:16:26.615Z,6.60
2018-12-16T00:18:55.363Z,6.60
2018-12-16T00:21:24.069Z,6.64
2018-12-16T00:23:52.839Z,6.57
2018-12-16T00:26:21.576Z,6.60
2018-12-16T00:28:50.290Z,6.57
2018-12-16T00:31:19.036Z,6.59
2018-12-16T00:33:47.765Z,6.62
2018-12-16T00:36:16.508Z,6.65
2018-12-16T00:38:45.290Z,6.68
2018-12-16T00:41:13.992Z,6.65
2018-12-16T00:43:42.688Z,6.65
2018-12-16T00:46:11.486Z,6.66
2018-12-16T00:48:40.248Z,6.65
2018-12-16T00:51:08.993Z,6.70
2018-12-16T00:53:37.647Z,6.79
2018-12-16T00:56:06.302Z,6.83
2018-12-16T00:58:35.092Z,6.80
2018-12-16T01:01:03.868Z,6.83
2018-12-16T01:03:32.800Z,6.85
2018-12-16T01:06:01.992Z,6.76
2018-12-16T01:08:31.543Z,6.69
2018-12-16T01:11:00.297Z,6.65
2018-12-16T01:13:29.148Z,6.67
2018-12-16T01:15:57.864Z,6.71
2018-12-16T01:18:26.628Z,6.70
2018-12-16T01:20:55.794Z,6.74
2018-12-16T01:23:24.477Z,6.79
2018-12-16T01:25:53.183Z,6.73
2018-12-16T01:28:21.926Z,6.80
2018-12-16T01:30:50.965Z,6.84
2018-12-16T01:33:19.628Z,6.83
2018-12-16T01:35:48.294Z,6.91
2018-12-16T01:38:17.022Z,6.91
2018-12-16T01:40:45.760Z,6.92
2018-12-16T01:43:14.520Z,6.94
2018-12-16T01:45:43.308Z,6.96
2018-12-16T01:48:12.046Z,6.98
2018-12-16T01:50:40.718Z,7.03
2018-12-16T01:53:09.410Z,7.05
2018-12-16T01:55:38.207Z,7.03
2018-12-16T01:58:06.914Z,7.05
2018-12-16T02:00:35.887Z,7.01
2018-12-16T02:03:05.070Z,7.08
2018-12-16T02:05:34.289Z,7.06
2018-12-16T02:08:03.070Z,7.11
2018-12-16T02:10:31.761Z,7.13
2018-12-16T02:13:00.522Z,7.19
2018-12-16T02:15:29.200Z,7.23
2018-12-16T02:17:57.996Z,7.17
2018-12-16T02:20:26.713Z,7.26
2018-12-16T02:22:57.059Z,7.25
2018-12-16T02:25:26.244Z,7.31
2018-12-16T02:27:55.041Z,7.28
2018-12-16T02:30:28.884Z,7.28
2018-12-16T02:32:58.328Z,7.29
2018-12-16T02:35:27.040Z,7.27
2018-12-16T02:37:55.673Z,7.27
2018-12-16T02:40:24.438Z,7.26
2018-12-16T02:42:53.129Z,7.22
2018-12-16T02:45:21.852Z,7.21
2018-12-16T02:47:50.570Z,7.19
2018-12-16T02:50:19.812Z,7.14
2018-12-16T02:52:48.543Z,7.09
2018-12-16T02:55:17.289Z,7.07
2018-12-16T02:57:45.976Z,7.10
2018-12-16T03:00:15.242Z,7.11
2018-12-16T03:02:43.897Z,7.17
2018-12-16T03:05:12.601Z,7.25
2018-12-16T03:07:42.170Z,7.30
2018-12-16T03:10:11.334Z,7.20
2018-12-16T03:12:40.175Z,7.24
2018-12-16T03:15:09.526Z,7.19
2018-12-16T03:17:38.403Z,7.08
2018-12-16T03:20:08.123Z,7.01
2018-12-16T03:22:36.964Z,6.99
2018-12-16T03:25:07.398Z,7.04
2018-12-16T03:27:39.289Z,7.06
2018-12-16T03:30:11.258Z,7.06
2018-12-16T03:32:40.054Z,6.86
2018-12-16T03:35:09.435Z,6.64
2018-12-16T03:37:38.285Z,6.65
2018-12-16T03:40:08.061Z,6.77
2018-12-16T03:42:36.841Z,6.65
2018-12-16T03:45:06.612Z,6.45
2018-12-16T03:47:35.326Z,6.40
2018-12-16T03:50:04.686Z,6.55
2018-12-16T03:52:33.472Z,6.59
2018-12-16T03:55:02.205Z,6.59
2018-12-16T03:57:31.479Z,6.61
2018-12-16T04:00:00.724Z,6.63
2018-12-16T04:02:29.449Z,6.69
2018-12-16T04:04:58.250Z,6.77
2018-12-16T04:07:27.074Z,6.82
2018-12-16T04:09:55.806Z,6.80
2018-12-16T04:12:24.479Z,6.85
2018-12-16T04:14:53.179Z,6.82
2018-12-16T04:17:21.882Z,6.89
2018-12-16T04:19:50.621Z,6.95
2018-12-16T04:22:19.381Z,7.02
2018-12-16T04:24:48.197Z,7.03
2018-12-16T04:27:17.053Z,7.03
2018-12-16T04:29:45.810Z,7.11
2018-12-16T04:32:14.589Z,7.15
2018-12-16T04:34:43.356Z,7.15
2018-12-16T04:37:12.072Z,7.16
2018-12-16T04:39:40.778Z,6.99
2018-12-16T04:42:09.645Z,6.88
2018-12-16T04:44:38.380Z,6.83
2018-12-16T04:47:07.173Z,6.73
2018-12-16T04:49:35.854Z,6.69
2018-12-16T04:52:04.618Z,6.73
2018-12-16T04:54:33.344Z,6.72
2018-12-16T04:57:02.091Z,6.59
2018-12-16T04:59:30.837Z,6.15
2018-12-16T05:01:59.609Z,5.98
2018-12-16T05:04:28.304Z,5.88
2018-12-16T05:06:57.054Z,5.82
2018-12-16T05:09:25.874Z,5.79
2018-12-16T05:11:54.664Z,5.74
2018-12-16T05:14:23.706Z,5.63
2018-12-16T05:16:52.468Z,5.50
2018-12-16T05:19:21.170Z,5.44
2018-12-16T05:21:49.899Z,5.48
2018-12-16T05:24:18.624Z,5.45
2018-12-16T05:26:47.363Z,5.40
2018-12-16T05:29:16.116Z,5.35
2018-12-16T05:31:44.903Z,5.21
2018-12-16T05:34:13.573Z,5.14
2018-12-16T05:36:42.450Z,5.08
2018-12-16T05:39:11.187Z,5.00
2018-12-16T05:41:39.896Z,4.96
2018-12-16T05:44:08.576Z,4.95
2018-12-16T05:46:37.267Z,4.90
2018-12-16T05:49:06.082Z,4.83
2018-12-16T05:51:34.800Z,4.76
2018-12-16T05:54:03.590Z,4.65
2018-12-16T05:56:32.326Z,4.49
2018-12-16T05:59:01.102Z,4.49
2018-12-16T06:01:29.778Z,4.46
2018-12-16T06:03:58.438Z,4.33
2018-12-16T06:06:27.202Z,4.35
2018-12-16T06:08:55.895Z,4.39
2018-12-16T06:11:24.641Z,4.34
2018-12-16T06:13:53.331Z,4.26
2018-12-16T06:16:21.977Z,4.24
2018-12-16T06:18:50.715Z,4.32
2018-12-16T06:21:19.435Z,4.26
2018-12-16T06:23:48.243Z,4.20
2018-12-16T06:26:16.980Z,4.07
2018-12-16T06:28:45.816Z,4.01
2018-12-16T06:31:14.640Z,3.96
2018-12-16T06:33:43.385Z,3.73
2018-12-16T06:36:12.503Z,3.80
2018-12-16T06:38:41.208Z,3.80
2018-12-16T06:41:09.910Z,3.66
2018-12-16T06:43:38.623Z,3.59
2018-12-16T06:46:07.365Z,3.65
2018-12-16T06:48:36.092Z,3.66
2018-12-16T06:51:04.843Z,3.68
2018-12-16T06:53:34.117Z,3.65
2018-12-16T06:56:06.598Z,3.63
2018-12-16T06:58:33.550Z,3.48
2018-12-16T07:01:02.419Z,3.49
2018-12-16T07:03:31.174Z,3.50
2018-12-16T07:06:00.018Z,3.43
2018-12-16T07:08:28.648Z,3.25
2018-12-16T07:10:57.617Z,3.05
2018-12-16T07:13:26.497Z,2.94
2018-12-16T07:15:55.234Z,2.75
2018-12-16T07:18:23.973Z,2.43
2018-12-16T07:20:52.726Z,2.32
2018-12-16T07:23:21.445Z,2.08
2018-12-16T07:25:50.453Z,2.02
2018-12-16T07:28:19.159Z,1.98
2018-12-16T07:30:48.237Z,1.87
2018-12-16T07:33:17.122Z,1.70
2018-12-16T07:35:46.189Z,1.66
2018-12-16T07:38:15.055Z,1.43
2018-12-16T07:40:43.806Z,1.33
2018-12-16T07:43:12.530Z,1.30
2018-12-16T07:45:41.203Z,0.90
2018-12-16T07:48:09.934Z,0.92
2018-12-16T07:50:38.733Z,0.92
2018-12-16T07:53:07.462Z,0.74
2018-12-16T07:55:36.182Z,0.49
2018-12-16T07:58:05.359Z,0.44
2018-12-16T08:00:34.341Z,0.25
2018-12-16T08:03:04.502Z,0.36
2018-12-16T08:05:33.277Z,0.46
2018-12-16T08:08:02.036Z,0.45
2018-12-16T08:10:30.812Z,0.50
2018-12-16T08:12:59.533Z,0.35
2018-12-16T08:15:28.277Z,0.35
2018-12-16T08:17:56.953Z,0.20
2018-12-16T08:20:25.642Z,0.20
2018-12-16T08:22:54.377Z,0.04
2018-12-16T08:25:23.165Z,-0.15
2018-12-16T08:27:51.945Z,-0.09
2018-12-16T08:30:20.945Z,-0.10
2018-12-16T08:32:49.660Z,-0.19
2018-12-16T08:35:18.417Z,-0.30
2018-12-16T08:37:47.177Z,-0.21
2018-12-16T08:40:16.456Z,-0.24
2018-12-16T08:42:45.164Z,-0.41
2018-12-16T08:45:13.963Z,-0.33
2018-12-16T08:47:42.738Z,-0.52
2018-12-16T08:50:11.533Z,-0.47
2018-12-16T08:52:40.536Z,-0.44
2018-12-16T08:55:09.248Z,-0.42
2018-12-16T08:57:37.985Z,-0.41
2018-12-16T09:00:14.732Z,-0.53
2018-12-16T09:02:43.467Z,-0.52
2018-12-16T09:05:13.391Z,-0.55
2018-12-16T09:07:42.081Z,-0.68
2018-12-16T09:10:11.476Z,-0.84
2018-12-16T09:12:40.234Z,-0.91
2018-12-16T09:15:09.463Z,-0.96
2018-12-16T09:17:38.208Z,-1.04
2018-12-16T09:20:07.995Z,-1.05
2018-12-16T09:22:36.778Z,-1.05
2018-12-16T09:25:07.273Z,-1.12
2018-12-16T09:27:36.024Z,-1.21
2018-12-16T09:30:14.018Z,-1.24
2018-12-16T09:32:42.767Z,-1.43
2018-12-16T09:35:11.463Z,-1.49
2018-12-16T09:37:40.190Z,-1.56
2018-12-16T09:40:09.643Z,-1.56
2018-12-16T09:42:38.383Z,-1.66
2018-12-16T09:45:08.114Z,-1.67
2018-12-16T09:47:37.313Z,-1.68
2018-12-16T09:50:06.955Z,-1.71
2018-12-16T09:52:35.660Z,-1.71
2018-12-16T09:55:05.318Z,-1.57
2018-12-16T09:57:34.072Z,-1.53
2018-12-16T10:00:12.021Z,-1.44
2018-12-16T10:02:40.847Z,-1.47
2018-12-16T10:05:12.594Z,-1.52
2018-12-16T10:07:41.356Z,-1.39
2018-12-16T10:10:11.452Z,-1.32
2018-12-16T10:12:40.227Z,-1.32
2018-12-16T10:15:10.050Z,-1.39
2018-12-16T10:17:38.789Z,-1.43
2018-12-16T10:20:10.020Z,-1.43
2018-12-16T10:22:38.968Z,-1.61
2018-12-16T10:25:08.207Z,-1.50
2018-12-16T10:27:36.965Z,-1.47
2018-12-16T10:30:13.872Z,-1.51
2018-12-16T10:32:42.604Z,-1.48
2018-12-16T10:35:11.344Z,-1.58
2018-12-16T10:37:40.093Z,-1.53
2018-12-16T10:40:08.933Z,-1.54
2018-12-16T10:42:37.655Z,-1.44
2018-12-16T10:45:08.540Z,-1.60
2018-12-16T10:47:37.268Z,-1.66
2018-12-16T10:50:07.644Z,-1.79
2018-12-16T10:52:36.382Z,-1.69
2018-12-16T10:55:06.104Z,-1.70
2018-12-16T10:57:34.820Z,-1.73
2018-12-16T11:00:16.699Z,-1.73
2018-12-16T11:02:45.443Z,-1.85
2018-12-16T11:05:15.326Z,-1.83
2018-12-16T11:07:44.039Z,-2.00
2018-12-16T11:10:12.761Z,-2.08
2018-12-16T11:12:42.337Z,-2.09
2018-12-16T11:15:11.170Z,-2.05
2018-12-16T11:17:39.880Z,-2.13
2018-12-16T11:20:09.234Z,-2.18
2018-12-16T11:22:37.985Z,-2.19
2018-12-16T11:25:09.026Z,-2.21
2018-12-16T11:27:37.803Z,-2.15
2018-12-16T11:30:15.276Z,-2.00
2018-12-16T11:32:44.491Z,-1.97
2018-12-16T11:35:13.243Z,-2.22
2018-12-16T11:37:42.423Z,-2.21
2018-12-16T11:40:11.258Z,-2.12
2018-12-16T11:42:39.976Z,-2.07
2018-12-16T11:45:09.213Z,-1.98
2018-12-16T11:47:38.019Z,-1.96
2018-12-16T11:50:07.342Z,-1.95
2018-12-16T11:52:36.136Z,-1.74
2018-12-16T11:55:12.540Z,-2.04
2018-12-16T11:57:36.248Z,-1.93
2018-12-16T12:00:13.657Z,-2.07
2018-12-16T12:02:42.341Z,-1.84
2018-12-16T12:05:11.102Z,-1.93
2018-12-16T12:07:39.813Z,-1.98
2018-12-16T12:10:09.348Z,-2.02
2018-12-16T12:12:38.071Z,-1.95
2018-12-16T12:15:07.251Z,-1.91
2018-12-16T12:17:35.984Z,-1.90
2018-12-16T12:20:05.501Z,-1.91
2018-12-16T12:22:34.238Z,-1.98
2018-12-16T12:25:03.006Z,-1.93
2018-12-16T12:27:31.807Z,-1.93
2018-12-16T12:30:00.566Z,-1.91
2018-12-16T12:32:29.328Z,-1.91
2018-12-16T12:34:58.020Z,-1.99
2018-12-16T12:37:26.866Z,-1.84
2018-12-16T12:39:55.660Z,-1.87
2018-12-16T12:42:24.420Z,-1.76
2018-12-16T12:44:53.186Z,-1.69
2018-12-16T12:47:22.191Z,-1.99
2018-12-16T12:49:50.886Z,-1.97
2018-12-16T12:52:19.952Z,-1.90
2018-12-16T12:54:50.633Z,-1.93
2018-12-16T12:57:19.398Z,-2.04
2018-12-16T12:59:48.268Z,-1.93
2018-12-16T13:02:17.079Z,-1.89
2018-12-16T13:04:45.927Z,-1.76
2018-12-16T13:07:14.633Z,-2.01
2018-12-16T13:09:43.409Z,-1.90
2018-12-16T13:12:12.236Z,-1.96
2018-12-16T13:14:41.371Z,-1.87
2018-12-16T13:17:10.140Z,-1.87
2018-12-16T13:19:38.862Z,-1.94
2018-12-16T13:22:07.617Z,-1.86
2018-12-16T13:24:40.753Z,-1.82
2018-12-16T13:27:09.505Z,-1.86
2018-12-16T13:29:38.230Z,-1.97
2018-12-16T13:32:07.076Z,-1.95
2018-12-16T13:34:35.842Z,-1.93
2018-12-16T13:37:11.152Z,-1.95
2018-12-16T13:39:39.873Z,-1.77
2018-12-16T13:42:08.561Z,-1.60
2018-12-16T13:44:37.272Z,-1.59
2018-12-16T13:47:06.161Z,-1.47
2018-12-16T13:49:34.945Z,-1.67
2018-12-16T13:52:03.747Z,-1.65
2018-12-16T13:54:32.596Z,-1.47
2018-12-16T13:57:01.471Z,-1.49
2018-12-16T13:59:30.261Z,-1.56
2018-12-16T14:01:58.982Z,-1.58
2018-12-16T14:04:27.744Z,-1.64
2018-12-16T14:06:56.529Z,-1.51
2018-12-16T14:09:25.298Z,-1.47
2018-12-16T14:11:54.406Z,-1.60
2018-12-16T14:14:23.147Z,-1.65
2018-12-16T14:16:51.921Z,-1.72
2018-12-16T14:19:20.707Z,-1.72
2018-12-16T14:21:49.496Z,-1.81
2018-12-16T14:24:18.243Z,-1.80
2018-12-16T14:26:47.196Z,-1.71
2018-12-16T14:29:16.005Z,-1.64
2018-12-16T14:31:44.680Z,-1.53
2018-12-16T14:34:13.427Z,-1.43
2018-12-16T14:36:42.155Z,-1.60
2018-12-16T14:39:10.848Z,-1.59
2018-12-16T14:41:40.396Z,-1.51
2018-12-16T14:44:09.206Z,-1.43
2018-12-16T14:46:37.891Z,-1.45
2018-12-16T14:49:06.605Z,-1.48
2018-12-16T14:51:35.877Z,-1.41
2018-12-16T14:54:05.039Z,-1.37
2018-12-16T14:56:33.808Z,-1.40
2018-12-16T14:59:03.178Z,-1.44
2018-12-16T15:01:31.990Z,-1.51
2018-12-16T15:04:01.051Z,-1.54
2018-12-16T15:06:29.942Z,-1.39
2018-12-16T15:08:58.618Z,-1.34
2018-12-16T15:11:27.470Z,-1.38
2018-12-16T15:13:56.224Z,-1.41
2018-12-16T15:16:25.266Z,-1.35
2018-12-16T15:18:54.005Z,-1.35
2018-12-16T15:21:22.744Z,-1.42
2018-12-16T15:23:51.573Z,-1.37
2018-12-16T15:26:20.393Z,-1.26
2018-12-16T15:28:49.203Z,-1.20
2018-12-16T15:31:19.311Z,-1.19
2018-12-16T15:33:48.493Z,-1.15
2018-12-16T15:36:17.411Z,-1.21
2018-12-16T15:38:46.161Z,-1.23
2018-12-16T15:41:15.011Z,-1.20
2018-12-16T15:43:43.905Z,-1.12
2018-12-16T15:46:12.737Z,-1.18
2018-12-16T15:48:42.307Z,-1.09
2018-12-16T15:51:11.038Z,-1.11
2018-12-16T15:53:40.217Z,-1.08
2018-12-16T15:56:09.517Z,-1.04
2018-12-16T15:58:40.731Z,-1.06
2018-12-16T16:01:09.652Z,-1.09
2018-12-16T16:03:38.761Z,-1.05
2018-12-16T16:06:07.513Z,-1.07
2018-12-16T16:08:37.483Z,-1.10
2018-12-16T16:11:06.720Z,-1.04
2018-12-16T16:13:35.592Z,-1.11
2018-12-16T16:16:06.078Z,-1.22
2018-12-16T16:18:35.135Z,-1.26
2018-12-16T16:21:04.783Z,-1.21
2018-12-16T16:23:33.597Z,-1.19
2018-12-16T16:26:02.458Z,-1.16
2018-12-16T16:28:31.338Z,-1.16
2018-12-16T16:31:00.253Z,-1.27
2018-12-16T16:33:29.754Z,-1.26
2018-12-16T16:35:59.637Z,-1.24
2018-12-16T16:38:28.613Z,-1.28
2018-12-16T16:40:58.030Z,-1.32
2018-12-16T16:43:26.941Z,-1.29
2018-12-16T16:45:55.882Z,-1.27
2018-12-16T16:48:24.847Z,-1.34
2018-12-16T16:50:53.853Z,-1.33
2018-12-16T16:53:24.256Z,-1.42
2018-12-16T16:55:53.457Z,-1.40
2018-12-16T16:58:22.396Z,-1.36
2018-12-16T17:00:53.888Z,-1.42
2018-12-16T17:03:23.735Z,-1.45
2018-12-16T17:05:52.522Z,-1.53
2018-12-16T17:08:22.249Z,-1.58
2018-12-16T17:10:51.671Z,-1.62
2018-12-16T17:13:20.419Z,-1.64
2018-12-16T17:15:49.545Z,-1.62
2018-12-16T17:18:19.537Z,-1.61
2018-12-16T17:20:48.326Z,-1.65
2018-12-16T17:23:17.205Z,-1.59
2018-12-16T17:25:48.436Z,-1.60
2018-12-16T17:28:18.552Z,-1.64
2018-12-16T17:30:47.319Z,-1.66
2018-12-16T17:33:16.108Z,-1.55
2018-12-16T17:35:44.943Z,-1.50
2018-12-16T17:38:13.712Z,-1.49
2018-12-16T17:40:42.507Z,-1.62
2018-12-16T17:43:11.234Z,-1.58
2018-12-16T17:45:40.037Z,-1.65
2018-12-16T17:48:08.840Z,-1.67
2018-12-16T17:50:37.537Z,-1.75
2018-12-16T17:53:06.937Z,-1.73
2018-12-16T17:55:37.456Z,-1.80
2018-12-16T17:58:06.791Z,-1.76
2018-12-16T18:00:35.590Z,-1.78
2018-12-16T18:03:04.411Z,-1.84
2018-12-16T18:05:34.037Z,-1.92
2018-12-16T18:08:04.305Z,-1.90
2018-12-16T18:10:33.043Z,-1.84
2018-12-16T18:13:02.200Z,-1.83
2018-12-16T18:15:31.081Z,-1.81
2018-12-16T18:17:59.795Z,-1.91
2018-12-16T18:20:28.595Z,-1.85
2018-12-16T18:22:57.454Z,-1.83
2018-12-16T18:25:26.202Z,-1.71
2018-12-16T18:27:55.086Z,-1.68
2018-12-16T18:30:23.982Z,-1.71
2018-12-16T18:32:53.253Z,-1.63
2018-12-16T18:35:22.163Z,-1.59
2018-12-16T18:37:51.360Z,-1.57
2018-12-16T18:40:20.127Z,-1.57
2018-12-16T18:42:48.912Z,-1.66
2018-12-16T18:45:18.119Z,-1.63
2018-12-16T18:47:47.376Z,-1.68
2018-12-16T18:50:16.120Z,-1.62
2018-12-16T18:52:44.930Z,-1.63
2018-12-16T18:55:14.100Z,-1.68
2018-12-16T18:57:42.852Z,-1.64
2018-12-16T19:00:15.636Z,-1.61
2018-12-16T19:02:44.521Z,-1.61
2018-12-16T19:05:13.323Z,-1.62
2018-12-16T19:07:43.165Z,-1.68
2018-12-16T19:10:13.074Z,-1.72
2018-12-16T19:12:41.811Z,-1.73
2018-12-16T19:15:12.116Z,-1.79
2018-12-16T19:17:40.897Z,-1.91
2018-12-16T19:20:10.220Z,-1.80
2018-12-16T19:22:38.987Z,-1.75
2018-12-16T19:25:08.625Z,-1.76
2018-12-16T19:27:37.399Z,-1.77
2018-12-16T19:30:13.794Z,-1.75
2018-12-16T19:32:42.573Z,-1.76
2018-12-16T19:35:11.580Z,-1.70
2018-12-16T19:37:40.522Z,-1.62
2018-12-16T19:40:09.635Z,-1.64
2018-12-16T19:42:38.798Z,-1.59
2018-12-16T19:45:08.434Z,-1.58
2018-12-16T19:47:37.203Z,-1.58
2018-12-16T19:50:07.402Z,-1.63
2018-12-16T19:52:36.152Z,-1.64
2018-12-16T19:55:05.951Z,-1.64
2018-12-16T19:57:34.763Z,-1.75
2018-12-16T20:00:12.854Z,-1.72
2018-12-16T20:02:41.604Z,-1.74
2018-12-16T20:05:20.095Z,-1.67
2018-12-16T20:07:49.678Z,-1.65
2018-12-16T20:10:18.598Z,-1.70
2018-12-16T20:12:47.335Z,-1.72
2018-12-16T20:15:16.124Z,-1.69
2018-12-16T20:17:44.857Z,-1.66
2018-12-16T20:20:13.653Z,-1.62
2018-12-16T20:22:42.436Z,-1.62
2018-12-16T20:25:11.672Z,-1.65
2018-12-16T20:27:40.442Z,-1.66
2018-12-16T20:30:12.693Z,-1.65
2018-12-16T20:32:41.519Z,-1.68
2018-12-16T20:35:10.478Z,-1.69
2018-12-16T20:37:39.655Z,-1.76
2018-12-16T20:40:09.356Z,-1.74
2018-12-16T20:42:38.083Z,-1.66
2018-12-16T20:45:07.940Z,-1.66
2018-12-16T20:47:36.669Z,-1.66
2018-12-16T20:50:07.216Z,-1.77
2018-12-16T20:52:35.911Z,-1.63
2018-12-16T20:55:05.843Z,-1.58
2018-12-16T20:57:34.621Z,-1.61
2018-12-16T21:00:11.984Z,-1.67
2018-12-16T21:02:40.912Z,-1.78
2018-12-16T21:05:10.996Z,-1.97
2018-12-16T21:07:39.780Z,-1.94
2018-12-16T21:10:09.051Z,-1.82
2018-12-16T21:12:43.062Z,-1.76
2018-12-16T21:16:15.720Z,-1.77
2018-12-16T21:18:44.994Z,-1.87
2018-12-16T21:21:13.812Z,-1.90
2018-12-16T21:23:42.567Z,-1.87
2018-12-16T21:26:11.608Z,-1.91
2018-12-16T21:28:40.355Z,-1.87
2018-12-16T21:31:09.124Z,-1.69
2018-12-16T21:33:37.924Z,-1.68
2018-12-16T21:36:06.685Z,-1.66
2018-12-16T21:38:35.432Z,-1.68
2018-12-16T21:41:04.227Z,-1.64
2018-12-16T21:43:34.821Z,-1.61
2018-12-16T21:46:03.913Z,-1.69
2018-12-16T21:48:32.686Z,-1.80
2018-12-16T21:51:01.405Z,-1.83
2018-12-16T21:53:30.162Z,-1.90
2018-12-16T21:55:58.871Z,-1.92
2018-12-16T21:58:27.628Z,-1.84
2018-12-16T22:00:56.437Z,-1.91
2018-12-16T22:03:25.227Z,-1.84
2018-12-16T22:05:54.035Z,-1.99
2018-12-16T22:08:22.752Z,-2.06
2018-12-16T22:10:51.541Z,-2.08
2018-12-16T22:13:20.331Z,-1.98
2018-12-16T22:15:49.062Z,-2.00
2018-12-16T22:18:17.824Z,-2.02
2018-12-16T22:20:46.596Z,-1.99
2018-12-16T22:23:15.353Z,-1.90
2018-12-16T22:25:44.147Z,-1.91
2018-12-16T22:28:12.938Z,-1.87
2018-12-16T22:30:41.747Z,-1.73
2018-12-16T22:33:10.480Z,-1.71
2018-12-16T22:35:39.228Z,-1.74
2018-12-16T22:38:07.927Z,-1.76
2018-12-16T22:40:36.654Z,-1.76
2018-12-16T22:43:05.503Z,-1.78
2018-12-16T22:45:34.215Z,-1.73
2018-12-16T22:48:02.922Z,-1.89
2018-12-16T22:50:31.700Z,-1.81
2018-12-16T22:53:00.406Z,-1.73
2018-12-16T22:55:29.126Z,-1.70
2018-12-16T22:57:57.990Z,-1.81
2018-12-16T23:00:27.433Z,-1.76
2018-12-16T23:02:56.214Z,-1.81
2018-12-16T23:05:24.972Z,-1.93
2018-12-16T23:07:53.650Z,-1.90
2018-12-16T23:10:22.408Z,-1.88
2018-12-16T23:12:51.232Z,-1.86
2018-12-16T23:15:19.933Z,-1.81
2018-12-16T23:17:48.707Z,-1.78
2018-12-16T23:20:19.869Z,-1.76
2018-12-16T23:22:48.942Z,-1.76
2018-12-16T23:25:17.689Z,-1.73
2018-12-16T23:27:46.372Z,-1.64
2018-12-16T23:30:15.271Z,-1.58
2018-12-16T23:32:44.002Z,-1.59
2018-12-16T23:35:12.763Z,-1.63
2018-12-16T23:37:41.474Z,-1.61
2018-12-16T23:40:10.207Z,-1.58
2018-12-16T23:42:39.022Z,-1.62
2018-12-16T23:45:09.938Z,-1.61
2018-12-16T23:47:38.634Z,-1.70
2018-12-16T23:50:08.516Z,-1.82
2018-12-16T23:52:37.306Z,-1.87
2018-12-16T23:55:06.525Z,-1.85
2018-12-16T23:57:35.313Z,-1.81
